This is the latest recevied weather packets stored in our database for station/object KF7PIZ. If no packets are shown the sender has not sent any weather packets the latest 10 day(s).
| Time | Temp. | Humidity | Pressure | Rain* | Wind** | Luminosity | Snow |
|---|---|---|---|---|---|---|---|
| 1777577366 | 23.89° C | 24% | 1018.6 hPa | 0 mm | - | 159 W/m² | - |
| 1777577061 | 23.89° C | 23% | 1018.5 hPa | 0 mm | - | 831 W/m² | - |
| 1777576759 | 23.89° C | 22% | 1018.8 hPa | 0 mm | - | 827 W/m² | - |
| 1777576458 | 22.78° C | 24% | 1018.8 hPa | 0 mm | - | 727 W/m² | - |
| 1777576155 | 22.78° C | 24% | 1018.9 hPa | 0 mm | - | 661 W/m² | - |
| 1777575849 | 22.22° C | 29% | 1018.7 hPa | 0 mm | - | 661 W/m² | - |
| 1777575547 | 22.78° C | 24% | 1018.9 hPa | 0 mm | - | 652 W/m² | - |
| 1777575242 | 21.67° C | 27% | 1018.8 hPa | 0 mm | - | 537 W/m² | - |
| 1777574939 | 21.11° C | 26% | 1019.3 hPa | 0 mm | - | 137 W/m² | - |
| 1777574635 | 20.56° C | 27% | 1019.1 hPa | 0 mm | - | 510 W/m² | - |
| 1777574332 | 20.56° C | 27% | 1019.1 hPa | 0 mm | - | 764 W/m² | - |
| 1777574032 | 19.44° C | 29% | 1019.4 hPa | 0 mm | - | 721 W/m² | - |
| 1777573727 | 20.56° C | 28% | 1019.1 hPa | 0 mm | - | 734 W/m² | - |
| 1777573424 | 21.11° C | 26% | 1019.4 hPa | 0 mm | - | 758 W/m² | - |
| 1777573119 | 20° C | 28% | 1019.4 hPa | 0 mm | - | 734 W/m² | - |
| 1777572816 | 19.44° C | 30% | 1019.6 hPa | 0 mm | - | 717 W/m² | - |
| 1777572512 | 19.44° C | 30% | 1019.3 hPa | 0 mm | - | 665 W/m² | - |
| 1777572208 | 18.89° C | 31% | 1019.3 hPa | 0 mm | - | 755 W/m² | - |
| 1777571903 | 18.33° C | 32% | 1019.8 hPa | 0 mm | - | 742 W/m² | - |
| 1777571598 | 19.44° C | 31% | 1019.7 hPa | 0 mm | - | 734 W/m² | - |
| 1777571296 | 18.33° C | 31% | 1019.8 hPa | 0 mm | - | 727 W/m² | - |
| 1777570992 | 18.33° C | 34% | 1019.8 hPa | 0 mm | - | 734 W/m² | - |
| 1777570688 | 18.89° C | 32% | 1019.8 hPa | 0 mm | - | 753 W/m² | - |
| 1777570385 | 18.89° C | 32% | 1019.7 hPa | 0 mm | - | 707 W/m² | - |
| 1777570080 | 20.56° C | 31% | 1019.7 hPa | 0 mm | - | 619 W/m² | - |
* Rain latest hour (hover to see other rain measurements)
** Current wind speed in m/s (hover to see current wind gust speed)